Time;durP1;ratioP1;P1;durP2;ratioP2;P2;SDS_P1;SDS_P2;PMS_P1;PMS_P2;Temp;Humidity;BMP_temperature;BMP_pressure;BME280_temperature;BME280_humidity;BME280_pressure;Samples;Min_cycle;Max_cycle;Signal;HPM_P1;HPM_P2
2022/02/14 00:02:09;;;;;;;4.60;3.70;;;;;;;;;;5089720;28;20501;-67
2022/02/14 00:04:38;;;;;;;5.70;4.03;;;;;;;;;;5090335;28;21015;-67
2022/02/14 00:07:05;;;;;;;3.60;2.77;;;;;;;;;;5090304;28;20452;-67
2022/02/14 00:09:32;;;;;;;4.60;3.20;;;;;;;;;;5090841;28;20455;-67
2022/02/14 00:12:00;;;;;;;3.70;2.90;;;;;;;;;;5090625;28;20539;-67
2022/02/14 00:14:27;;;;;;;5.10;3.23;;;;;;;;;;5089394;28;20472;-68
2022/02/14 00:16:54;;;;;;;5.00;2.93;;;;;;;;;;5090563;28;20445;-68
2022/02/14 00:19:22;;;;;;;4.23;3.00;;;;;;;;;;5089497;28;20794;-68
2022/02/14 00:21:50;;;;;;;5.93;3.33;;;;;;;;;;5087035;28;21022;-66
2022/02/14 00:24:18;;;;;;;3.97;2.90;;;;;;;;;;5088961;28;20971;-68
2022/02/14 00:26:45;;;;;;;5.27;3.40;;;;;;;;;;5090617;28;20445;-68
2022/02/14 00:29:13;;;;;;;4.83;2.93;;;;;;;;;;5087111;28;20524;-68
2022/02/14 00:31:40;;;;;;;4.17;3.77;;;;;;;;;;5090072;28;20821;-67
2022/02/14 00:34:07;;;;;;;4.03;3.13;;;;;;;;;;5089863;28;20504;-68
2022/02/14 00:36:35;;;;;;;5.20;2.93;;;;;;;;;;5089844;28;21076;-66
2022/02/14 00:39:04;;;;;;;3.33;3.00;;;;;;;;;;5090401;28;20540;-66
2022/02/14 00:41:31;;;;;;;5.83;3.23;;;;;;;;;;5089772;28;20449;-67
2022/02/14 00:43:58;;;;;;;4.10;2.97;;;;;;;;;;5088132;28;20536;-67
2022/02/14 00:46:25;;;;;;;3.07;2.70;;;;;;;;;;5089442;28;20456;-67
2022/02/14 00:48:52;;;;;;;4.70;3.10;;;;;;;;;;5090228;28;20580;-66
2022/02/14 00:51:19;;;;;;;5.80;3.37;;;;;;;;;;5089206;28;20491;-66
2022/02/14 00:53:46;;;;;;;3.07;2.47;;;;;;;;;;5090328;28;20563;-66
2022/02/14 00:56:15;;;;;;;2.90;2.50;;;;;;;;;;5088946;28;20448;-67
2022/02/14 00:58:42;;;;;;;3.07;2.60;;;;;;;;;;5087241;28;20444;-67
2022/02/14 01:01:09;;;;;;;6.97;3.70;;;;;;;;;;5089437;28;20443;-68
2022/02/14 01:03:36;;;;;;;3.57;2.57;;;;;;;;;;5091151;28;20480;-67
2022/02/14 01:06:04;;;;;;;3.17;2.80;;;;;;;;;;5094267;28;20484;-66
2022/02/14 01:08:31;;;;;;;4.00;2.97;;;;;;;;;;5093810;28;20448;-66
2022/02/14 01:10:58;;;;;;;7.43;3.53;;;;;;;;;;5093954;28;20940;-66
2022/02/14 01:13:27;;;;;;;5.00;3.10;;;;;;;;;;5092694;28;20472;-68
2022/02/14 01:15:54;;;;;;;3.40;3.10;;;;;;;;;;5094029;28;20531;-67
2022/02/14 01:18:21;;;;;;;4.33;2.63;;;;;;;;;;5092641;28;20444;-68
2022/02/14 01:20:48;;;;;;;3.20;2.80;;;;;;;;;;5093211;28;20470;-68
2022/02/14 01:23:15;;;;;;;2.73;2.30;;;;;;;;;;5093318;28;20459;-68
2022/02/14 01:25:43;;;;;;;5.87;3.03;;;;;;;;;;5093871;28;21026;-67
2022/02/14 01:28:10;;;;;;;5.07;3.07;;;;;;;;;;5092608;28;20445;-68
2022/02/14 01:30:38;;;;;;;4.13;3.23;;;;;;;;;;5094203;28;20546;-67
2022/02/14 01:33:05;;;;;;;7.07;3.50;;;;;;;;;;5093473;28;20540;-68
2022/02/14 01:35:33;;;;;;;9.90;3.40;;;;;;;;;;5092256;28;20444;-68
2022/02/14 01:38:00;;;;;;;3.93;3.03;;;;;;;;;;5093446;28;20447;-67
2022/02/14 01:40:27;;;;;;;5.00;3.77;;;;;;;;;;5092355;28;20459;-68
2022/02/14 01:42:54;;;;;;;4.97;2.60;;;;;;;;;;5093352;28;20445;-67
2022/02/14 01:45:21;;;;;;;4.00;2.37;;;;;;;;;;5092301;28;20448;-67
2022/02/14 01:47:50;;;;;;;4.20;2.97;;;;;;;;;;5092259;28;20974;-67
2022/02/14 01:50:17;;;;;;;2.93;2.43;;;;;;;;;;5092229;28;20487;-67
2022/02/14 01:52:45;;;;;;;4.63;2.70;;;;;;;;;;5093002;28;20563;-67
2022/02/14 01:55:13;;;;;;;4.93;2.63;;;;;;;;;;5093059;28;20476;-68
2022/02/14 01:57:40;;;;;;;4.57;3.00;;;;;;;;;;5093369;28;20539;-68
2022/02/14 02:00:09;;;;;;;4.17;2.40;;;;;;;;;;5092086;28;20788;-69
2022/02/14 02:02:36;;;;;;;4.90;2.90;;;;;;;;;;5092159;28;20535;-68
2022/02/14 02:05:05;;;;;;;5.57;2.60;;;;;;;;;;5093213;28;20539;-68
2022/02/14 02:07:33;;;;;;;3.30;2.20;;;;;;;;;;5091603;28;20453;-68
2022/02/14 02:10:00;;;;;;;4.37;3.00;;;;;;;;;;5092868;28;20865;-68
2022/02/14 02:12:26;;;;;;;5.13;2.50;;;;;;;;;;5091765;28;20618;-68
2022/02/14 02:14:54;;;;;;;4.97;2.60;;;;;;;;;;5092208;28;20481;-68
2022/02/14 02:17:22;;;;;;;2.80;2.07;;;;;;;;;;5091916;28;20779;-68
2022/02/14 02:19:49;;;;;;;3.20;2.33;;;;;;;;;;5091623;28;20967;-68
2022/02/14 02:22:17;;;;;;;3.33;2.47;;;;;;;;;;5090244;28;20453;-68
2022/02/14 02:24:50;;;;;;;4.93;2.50;;;;;;;;;;5089894;28;20457;-68
2022/02/14 02:27:18;;;;;;;3.27;2.23;;;;;;;;;;5091640;28;20514;-66
2022/02/14 02:29:46;;;;;;;7.53;2.60;;;;;;;;;;5092344;28;20447;-68
2022/02/14 02:32:14;;;;;;;3.53;2.30;;;;;;;;;;5091668;28;20451;-68
2022/02/14 02:34:42;;;;;;;3.80;2.07;;;;;;;;;;5092971;28;20480;-67
2022/02/14 02:37:10;;;;;;;3.03;1.80;;;;;;;;;;5080481;28;20476;-68
2022/02/14 02:39:38;;;;;;;3.27;2.20;;;;;;;;;;5092821;28;20481;-68
2022/02/14 02:42:07;;;;;;;6.33;2.33;;;;;;;;;;5092151;28;20453;-69
2022/02/14 02:44:35;;;;;;;2.10;1.90;;;;;;;;;;5091562;28;20568;-68
2022/02/14 02:47:03;;;;;;;3.57;2.20;;;;;;;;;;5091794;28;20440;-68
2022/02/14 02:49:30;;;;;;;4.60;2.67;;;;;;;;;;5091568;28;21317;-68
2022/02/14 02:51:57;;;;;;;2.77;2.00;;;;;;;;;;5091557;28;20502;-68
2022/02/14 02:54:25;;;;;;;2.50;2.03;;;;;;;;;;5091089;28;20984;-68
2022/02/14 02:56:54;;;;;;;6.20;2.30;;;;;;;;;;5091322;28;20535;-68
2022/02/14 02:59:23;;;;;;;4.77;2.30;;;;;;;;;;5091747;28;20535;-68
2022/02/14 03:01:50;;;;;;;3.47;2.47;;;;;;;;;;5091309;28;20536;-68
2022/02/14 03:04:18;;;;;;;3.77;1.90;;;;;;;;;;5090711;28;20452;-68
2022/02/14 03:06:46;;;;;;;2.23;2.00;;;;;;;;;;5091580;28;20456;-68
2022/02/14 03:09:14;;;;;;;3.70;2.60;;;;;;;;;;5090884;28;20441;-68
2022/02/14 03:11:43;;;;;;;2.60;2.00;;;;;;;;;;5091905;28;20816;-68
2022/02/14 03:14:10;;;;;;;2.37;1.70;;;;;;;;;;5090520;28;20476;-70
2022/02/14 03:16:39;;;;;;;2.40;1.80;;;;;;;;;;5091166;28;20444;-68
2022/02/14 03:19:06;;;;;;;3.07;2.23;;;;;;;;;;5091041;28;20932;-69
2022/02/14 03:21:34;;;;;;;2.33;1.70;;;;;;;;;;5092075;28;20463;-68
2022/02/14 03:24:02;;;;;;;2.40;1.83;;;;;;;;;;5091634;28;20561;-68
2022/02/14 03:26:29;;;;;;;3.47;2.03;;;;;;;;;;5090259;28;20449;-68
2022/02/14 03:28:57;;;;;;;2.57;2.00;;;;;;;;;;5091687;28;20445;-68
2022/02/14 03:31:25;;;;;;;3.63;2.00;;;;;;;;;;5089848;28;20443;-68
2022/02/14 03:33:53;;;;;;;2.43;1.77;;;;;;;;;;5091125;28;20488;-68
2022/02/14 03:36:21;;;;;;;3.47;2.00;;;;;;;;;;5090145;28;20444;-68
2022/02/14 03:38:49;;;;;;;2.93;1.50;;;;;;;;;;5086368;28;20941;-68
2022/02/14 03:41:16;;;;;;;6.87;2.20;;;;;;;;;;5084248;28;20445;-68
2022/02/14 03:43:43;;;;;;;2.60;1.80;;;;;;;;;;5089181;28;20471;-68
2022/02/14 03:46:10;;;;;;;1.70;1.60;;;;;;;;;;5090647;28;20468;-69
2022/02/14 03:48:37;;;;;;;2.13;1.80;;;;;;;;;;5091250;28;20444;-68
2022/02/14 03:51:06;;;;;;;3.63;2.00;;;;;;;;;;5091160;28;20487;-68
2022/02/14 03:53:33;;;;;;;3.90;2.00;;;;;;;;;;5070344;28;20449;-67
2022/02/14 03:56:00;;;;;;;3.33;2.07;;;;;;;;;;5071094;28;20532;-67
2022/02/14 03:58:29;;;;;;;2.40;1.73;;;;;;;;;;5069300;28;21173;-67
2022/02/14 04:00:56;;;;;;;6.90;2.10;;;;;;;;;;5070472;28;20941;-67
2022/02/14 04:03:23;;;;;;;5.63;1.97;;;;;;;;;;5070462;28;20866;-67
2022/02/14 04:05:50;;;;;;;2.63;1.90;;;;;;;;;;5070599;28;20459;-67
2022/02/14 04:08:19;;;;;;;3.27;1.80;;;;;;;;;;5069264;28;20953;-67
2022/02/14 04:10:46;;;;;;;2.20;1.63;;;;;;;;;;5060630;28;20449;-68
2022/02/14 04:13:13;;;;;;;2.43;1.23;;;;;;;;;;5069821;28;20514;-68
2022/02/14 04:15:40;;;;;;;2.33;1.80;;;;;;;;;;5068018;28;20481;-66
2022/02/14 04:18:08;;;;;;;3.40;2.20;;;;;;;;;;5069745;28;20452;-69
2022/02/14 04:20:36;;;;;;;4.50;2.33;;;;;;;;;;5070424;28;20461;-67
2022/02/14 04:23:03;;;;;;;2.70;2.10;;;;;;;;;;5063270;28;20458;-67
2022/02/14 04:25:32;;;;;;;4.07;2.13;;;;;;;;;;5066861;28;20448;-68
2022/02/14 04:27:59;;;;;;;3.30;2.10;;;;;;;;;;5070495;28;20453;-67
2022/02/14 04:30:29;;;;;;;2.60;1.97;;;;;;;;;;5069221;28;21136;-67
2022/02/14 04:32:58;;;;;;;2.93;1.53;;;;;;;;;;5069662;28;20485;-67
2022/02/14 04:35:26;;;;;;;3.30;2.20;;;;;;;;;;5069674;28;20564;-67
2022/02/14 04:37:54;;;;;;;9.87;2.97;;;;;;;;;;5061045;28;20533;-67
2022/02/14 04:40:22;;;;;;;3.60;2.73;;;;;;;;;;5069777;28;20483;-67
2022/02/14 04:42:51;;;;;;;5.83;2.97;;;;;;;;;;5066944;28;20453;-67
2022/02/14 04:45:18;;;;;;;8.53;2.90;;;;;;;;;;5070691;28;21018;-68
2022/02/14 04:47:45;;;;;;;4.67;2.50;;;;;;;;;;5074143;28;20476;-67
2022/02/14 04:50:13;;;;;;;3.80;2.17;;;;;;;;;;5073332;28;20537;-68
2022/02/14 04:52:40;;;;;;;3.90;1.90;;;;;;;;;;5086319;28;20480;-67
2022/02/14 04:55:08;;;;;;;2.43;1.50;;;;;;;;;;5089345;28;20571;-68
2022/02/14 04:57:36;;;;;;;3.07;2.23;;;;;;;;;;5085999;28;20531;-67
2022/02/14 05:00:04;;;;;;;2.40;1.77;;;;;;;;;;5093994;28;20805;-67
2022/02/14 05:02:32;;;;;;;3.30;2.10;;;;;;;;;;5094179;28;20476;-67
2022/02/14 05:04:59;;;;;;;2.50;2.10;;;;;;;;;;5093377;28;20459;-67
2022/02/14 05:07:26;;;;;;;3.67;2.37;;;;;;;;;;5092932;28;20630;-68
2022/02/14 05:09:53;;;;;;;3.73;1.93;;;;;;;;;;5093877;28;20455;-67
2022/02/14 05:12:20;;;;;;;6.00;2.13;;;;;;;;;;5093122;28;20452;-67
2022/02/14 05:14:47;;;;;;;3.50;2.23;;;;;;;;;;5093483;28;20559;-67
2022/02/14 05:17:16;;;;;;;8.83;2.47;;;;;;;;;;5092985;28;20460;-68
2022/02/14 05:19:43;;;;;;;3.90;2.50;;;;;;;;;;5092979;28;20821;-66
2022/02/14 05:22:11;;;;;;;5.43;2.20;;;;;;;;;;5093196;28;20877;-69
2022/02/14 05:24:38;;;;;;;3.20;1.93;;;;;;;;;;5093144;28;20457;-67
2022/02/14 05:27:06;;;;;;;5.83;1.90;;;;;;;;;;5091908;28;20453;-67
2022/02/14 05:29:33;;;;;;;3.17;2.10;;;;;;;;;;5093460;28;20448;-68
2022/02/14 05:32:00;;;;;;;6.80;1.83;;;;;;;;;;5093258;28;20808;-67
2022/02/14 05:34:29;;;;;;;2.50;1.87;;;;;;;;;;5092603;28;20472;-67
2022/02/14 05:36:56;;;;;;;5.80;2.83;;;;;;;;;;5093158;28;20875;-67
2022/02/14 05:39:23;;;;;;;2.07;1.33;;;;;;;;;;5091997;28;20963;-67
2022/02/14 05:41:50;;;;;;;4.20;2.20;;;;;;;;;;5093397;28;20534;-67
2022/02/14 05:44:17;;;;;;;2.77;1.90;;;;;;;;;;5092210;28;20525;-67
2022/02/14 05:46:44;;;;;;;5.30;2.00;;;;;;;;;;5093038;28;20804;-67
2022/02/14 05:49:12;;;;;;;4.90;1.90;;;;;;;;;;5092627;28;20867;-66
2022/02/14 05:51:40;;;;;;;3.07;1.87;;;;;;;;;;5091549;28;20476;-67
2022/02/14 05:54:08;;;;;;;2.87;1.93;;;;;;;;;;5093062;28;20539;-68
2022/02/14 05:56:35;;;;;;;4.73;1.67;;;;;;;;;;5090459;28;20482;-67
2022/02/14 05:59:02;;;;;;;2.50;1.77;;;;;;;;;;5092269;28;20441;-67
2022/02/14 06:01:30;;;;;;;2.23;1.50;;;;;;;;;;5092524;28;20632;-68
2022/02/14 06:03:57;;;;;;;5.03;2.23;;;;;;;;;;5086813;28;20481;-67
2022/02/14 06:06:25;;;;;;;2.87;1.80;;;;;;;;;;5085188;28;20542;-66
2022/02/14 06:08:53;;;;;;;2.80;1.87;;;;;;;;;;5093422;28;20448;-66
2022/02/14 06:11:21;;;;;;;4.03;2.33;;;;;;;;;;5092623;28;20437;-67
2022/02/14 06:13:48;;;;;;;3.27;1.60;;;;;;;;;;5093181;28;20455;-66
2022/02/14 06:16:15;;;;;;;2.70;1.73;;;;;;;;;;5091812;28;20579;-67
2022/02/14 06:18:42;;;;;;;3.83;2.00;;;;;;;;;;5092956;28;20451;-67
2022/02/14 06:21:09;;;;;;;3.47;1.90;;;;;;;;;;5092214;28;20444;-68
2022/02/14 06:23:37;;;;;;;2.10;1.73;;;;;;;;;;5092705;28;20448;-67
2022/02/14 06:26:06;;;;;;;3.10;1.60;;;;;;;;;;5079247;28;20473;-67
2022/02/14 06:28:38;;;;;;;6.23;1.83;;;;;;;;;;5092240;28;20535;-68
2022/02/14 06:31:05;;;;;;;3.10;2.27;;;;;;;;;;5092724;28;20509;-68
2022/02/14 06:33:32;;;;;;;4.07;2.53;;;;;;;;;;5092585;28;20939;-68
2022/02/14 06:35:59;;;;;;;9.07;2.37;;;;;;;;;;5082966;28;21060;-68
2022/02/14 06:38:27;;;;;;;3.77;2.10;;;;;;;;;;5088902;28;20447;-67
2022/02/14 06:40:54;;;;;;;2.53;2.20;;;;;;;;;;5088396;28;20442;-68
2022/02/14 06:43:22;;;;;;;3.73;2.50;;;;;;;;;;5083653;28;20517;-67
2022/02/14 06:45:50;;;;;;;11.43;2.97;;;;;;;;;;5087558;28;20463;-68
2022/02/14 06:48:17;;;;;;;5.27;1.70;;;;;;;;;;5087582;28;20461;-67
2022/02/14 06:50:44;;;;;;;5.93;1.80;;;;;;;;;;5085173;28;20460;-66
2022/02/14 06:53:11;;;;;;;2.57;1.50;;;;;;;;;;5084336;28;20481;-64
2022/02/14 06:55:38;;;;;;;3.60;1.90;;;;;;;;;;5087708;28;20491;-67
2022/02/14 06:58:05;;;;;;;4.70;1.97;;;;;;;;;;5089947;28;20453;-67
2022/02/14 07:00:34;;;;;;;3.13;2.00;;;;;;;;;;5085328;28;20447;-67
2022/02/14 07:03:01;;;;;;;2.53;1.70;;;;;;;;;;5086076;28;20564;-67
2022/02/14 07:05:28;;;;;;;4.27;2.33;;;;;;;;;;5086972;28;20451;-67
2022/02/14 07:07:55;;;;;;;5.23;2.47;;;;;;;;;;5085147;28;20437;-67
2022/02/14 07:10:23;;;;;;;3.10;1.93;;;;;;;;;;5086944;28;20455;-67
2022/02/14 07:12:50;;;;;;;7.63;2.53;;;;;;;;;;5087443;28;20922;-67
2022/02/14 07:15:18;;;;;;;3.93;2.47;;;;;;;;;;5086063;28;21022;-68
2022/02/14 07:17:48;;;;;;;4.73;2.40;;;;;;;;;;5083872;28;20452;-68
2022/02/14 07:20:15;;;;;;;5.47;2.67;;;;;;;;;;5083836;28;20859;-68
2022/02/14 07:22:42;;;;;;;7.90;2.70;;;;;;;;;;5086732;28;20478;-67
2022/02/14 07:25:10;;;;;;;4.37;2.70;;;;;;;;;;5084469;28;20533;-69
2022/02/14 07:27:37;;;;;;;7.03;2.47;;;;;;;;;;5083735;28;20463;-67
2022/02/14 07:30:05;;;;;;;3.13;2.60;;;;;;;;;;5086916;28;22089;-67
2022/02/14 07:32:32;;;;;;;7.73;3.33;;;;;;;;;;5087686;28;20440;-67
2022/02/14 07:35:02;;;;;;;5.33;2.87;;;;;;;;;;5086409;28;20486;-67
2022/02/14 07:37:29;;;;;;;3.83;2.40;;;;;;;;;;5089802;28;20440;-66
2022/02/14 07:39:56;;;;;;;5.17;2.60;;;;;;;;;;5086177;28;20540;-66
2022/02/14 07:42:23;;;;;;;4.97;3.00;;;;;;;;;;5083607;28;20480;-67
2022/02/14 07:44:50;;;;;;;3.10;2.30;;;;;;;;;;5089965;28;20528;-66
2022/02/14 07:47:18;;;;;;;3.27;2.80;;;;;;;;;;5083031;28;20444;-67
2022/02/14 07:49:45;;;;;;;5.33;3.27;;;;;;;;;;5084388;28;20440;-66
2022/02/14 07:52:15;;;;;;;4.60;3.40;;;;;;;;;;5089188;28;20563;-67
2022/02/14 07:54:42;;;;;;;6.03;3.10;;;;;;;;;;5090396;28;20440;-65
2022/02/14 07:57:10;;;;;;;7.60;4.17;;;;;;;;;;5084454;28;20468;-66
2022/02/14 07:59:37;;;;;;;8.63;3.40;;;;;;;;;;5086468;28;20532;-66
2022/02/14 08:02:04;;;;;;;3.93;3.50;;;;;;;;;;5086705;28;20448;-66
2022/02/14 08:04:32;;;;;;;11.43;3.10;;;;;;;;;;5086327;28;20449;-67
2022/02/14 08:07:02;;;;;;;4.20;3.20;;;;;;;;;;5087054;28;20798;-67
2022/02/14 08:09:30;;;;;;;7.90;4.00;;;;;;;;;;5084100;28;20437;-67
2022/02/14 08:11:57;;;;;;;8.07;3.70;;;;;;;;;;5084069;28;20955;-67
2022/02/14 08:14:24;;;;;;;5.33;3.77;;;;;;;;;;5082367;28;20549;-68
2022/02/14 08:16:52;;;;;;;11.80;5.00;;;;;;;;;;5084370;28;20976;-67
2022/02/14 08:19:19;;;;;;;6.63;3.03;;;;;;;;;;5084796;28;20439;-67
2022/02/14 08:21:46;;;;;;;6.20;3.20;;;;;;;;;;5083859;28;20456;-68
2022/02/14 08:24:13;;;;;;;7.10;4.23;;;;;;;;;;5085829;28;21034;-64
2022/02/14 08:26:42;;;;;;;5.07;3.50;;;;;;;;;;5087365;28;20454;-67
2022/02/14 08:29:11;;;;;;;4.70;3.70;;;;;;;;;;5085673;28;20452;-71
2022/02/14 08:31:38;;;;;;;5.60;3.87;;;;;;;;;;5083148;28;20449;-67
2022/02/14 08:34:05;;;;;;;5.43;2.23;;;;;;;;;;5087328;28;20849;-67
2022/02/14 08:36:33;;;;;;;4.60;3.13;;;;;;;;;;5088277;28;20476;-66
2022/02/14 08:39:00;;;;;;;6.30;2.70;;;;;;;;;;5085559;28;20793;-67
2022/02/14 08:41:27;;;;;;;3.93;2.57;;;;;;;;;;5085772;28;20535;-66
2022/02/14 08:43:56;;;;;;;4.47;2.33;;;;;;;;;;5081059;28;21008;-67
2022/02/14 08:46:24;;;;;;;5.30;2.63;;;;;;;;;;5086272;28;20459;-66
2022/02/14 08:48:52;;;;;;;6.67;2.73;;;;;;;;;;5088028;28;20551;-65
2022/02/14 08:51:19;;;;;;;2.67;2.33;;;;;;;;;;5087820;28;20460;-66
2022/02/14 08:53:47;;;;;;;3.20;2.33;;;;;;;;;;5085223;28;20798;-66
2022/02/14 08:56:14;;;;;;;9.63;2.37;;;;;;;;;;5088296;28;20491;-67
2022/02/14 08:58:41;;;;;;;8.00;2.10;;;;;;;;;;5087864;28;20456;-68
2022/02/14 09:01:11;;;;;;;7.10;2.10;;;;;;;;;;5081431;28;20442;-68
2022/02/14 09:03:40;;;;;;;5.00;3.13;;;;;;;;;;5086690;28;20493;-66
2022/02/14 09:06:07;;;;;;;5.00;4.33;;;;;;;;;;5086357;28;20440;-71
2022/02/14 09:08:34;;;;;;;6.47;3.23;;;;;;;;;;5084415;28;20924;-66
2022/02/14 09:11:01;;;;;;;9.53;2.80;;;;;;;;;;5082717;28;20507;-66
2022/02/14 09:13:29;;;;;;;5.20;2.20;;;;;;;;;;5079464;28;20544;-68
2022/02/14 09:15:56;;;;;;;3.20;1.93;;;;;;;;;;5079311;28;20631;-66
2022/02/14 09:18:25;;;;;;;3.90;2.13;;;;;;;;;;5085082;28;20532;-67
2022/02/14 09:20:52;;;;;;;7.33;2.60;;;;;;;;;;5086016;28;20455;-66
2022/02/14 09:23:21;;;;;;;4.70;2.00;;;;;;;;;;5083463;28;20932;-67
2022/02/14 09:25:49;;;;;;;5.07;2.43;;;;;;;;;;5086918;28;20454;-66
2022/02/14 09:28:16;;;;;;;5.03;2.20;;;;;;;;;;5088948;28;20452;-67
2022/02/14 09:30:43;;;;;;;2.37;1.90;;;;;;;;;;5085146;28;20853;-66
2022/02/14 09:33:10;;;;;;;9.10;2.90;;;;;;;;;;5085142;28;20480;-69
2022/02/14 09:35:39;;;;;;;2.50;2.10;;;;;;;;;;5091442;28;20499;-66
2022/02/14 09:38:07;;;;;;;5.50;2.50;;;;;;;;;;5092422;28;20497;-69
2022/02/14 09:40:34;;;;;;;3.30;1.90;;;;;;;;;;5092107;28;20484;-66
2022/02/14 09:43:02;;;;;;;4.30;2.10;;;;;;;;;;5091812;28;20964;-67
2022/02/14 09:45:30;;;;;;;3.50;2.20;;;;;;;;;;5082112;28;20535;-66
2022/02/14 09:47:58;;;;;;;5.30;2.53;;;;;;;;;;5091872;28;20527;-67
2022/02/14 09:50:25;;;;;;;3.87;1.87;;;;;;;;;;5091387;28;20523;-66
2022/02/14 09:52:54;;;;;;;2.83;2.10;;;;;;;;;;5090258;28;20485;-66
2022/02/14 09:55:22;;;;;;;8.20;5.40;;;;;;;;;;5089531;28;20444;-66
2022/02/14 09:57:49;;;;;;;3.87;2.20;;;;;;;;;;5088205;28;20551;-65
2022/02/14 10:00:17;;;;;;;4.37;2.40;;;;;;;;;;5087885;28;20453;-67
2022/02/14 10:02:44;;;;;;;4.00;2.67;;;;;;;;;;5086380;28;20452;-67
2022/02/14 10:05:13;;;;;;;2.50;2.30;;;;;;;;;;5089890;28;20433;-66
2022/02/14 10:07:41;;;;;;;4.63;1.97;;;;;;;;;;5086402;28;20449;-66
2022/02/14 10:10:15;;;;;;;3.37;2.30;;;;;;;;;;5090095;28;20483;-67
2022/02/14 10:12:43;;;;;;;4.30;2.37;;;;;;;;;;5086958;28;20444;-67
2022/02/14 10:15:11;;;;;;;3.50;1.90;;;;;;;;;;5086055;28;20449;-70
2022/02/14 10:17:42;;;;;;;4.47;2.10;;;;;;;;;;5087956;28;20482;-68
2022/02/14 10:20:10;;;;;;;3.70;2.43;;;;;;;;;;5085138;28;20520;-69
2022/02/14 10:22:51;;;;;;;4.30;2.20;;;;;;;;;;5088742;28;20448;-68
2022/02/14 10:25:30;;;;;;;3.10;2.00;;;;;;;;;;5085530;28;20444;-68
2022/02/14 10:28:12;;;;;;;6.83;2.40;;;;;;;;;;5085570;28;20509;-68
2022/02/14 10:30:54;;;;;;;5.20;2.33;;;;;;;;;;5089531;28;20449;-67
2022/02/14 10:33:21;;;;;;;4.03;2.10;;;;;;;;;;5085136;28;20449;-68
2022/02/14 10:35:49;;;;;;;3.23;1.93;;;;;;;;;;5087916;28;20571;-68
2022/02/14 10:38:16;;;;;;;4.47;1.87;;;;;;;;;;5090673;28;20449;-68
2022/02/14 10:40:45;;;;;;;5.13;2.20;;;;;;;;;;5092019;28;20532;-67
2022/02/14 10:43:24;;;;;;;4.87;2.67;;;;;;;;;;5084473;28;20956;-67
2022/02/14 10:45:54;;;;;;;4.50;2.77;;;;;;;;;;5090061;28;20467;-67
2022/02/14 10:48:33;;;;;;;4.37;2.00;;;;;;;;;;5087899;28;20534;-67
2022/02/14 10:51:00;;;;;;;4.37;1.70;;;;;;;;;;5087465;28;20977;-67
2022/02/14 10:53:28;;;;;;;3.63;2.47;;;;;;;;;;5090015;28;20464;-67
2022/02/14 10:55:58;;;;;;;3.97;1.80;;;;;;;;;;5080540;28;20462;-67
2022/02/14 10:58:28;;;;;;;2.63;1.77;;;;;;;;;;5087937;28;20440;-67
2022/02/14 11:00:57;;;;;;;5.60;2.30;;;;;;;;;;5086941;28;20501;-67
2022/02/14 11:03:24;;;;;;;4.20;1.73;;;;;;;;;;5086363;28;20453;-67
2022/02/14 11:05:52;;;;;;;2.53;1.53;;;;;;;;;;5086362;28;20556;-68
2022/02/14 11:08:21;;;;;;;3.33;1.90;;;;;;;;;;5086949;28;20448;-68
2022/02/14 11:10:50;;;;;;;2.03;1.60;;;;;;;;;;5087745;28;20444;-68
2022/02/14 11:13:19;;;;;;;4.30;1.70;;;;;;;;;;5085928;28;20467;-66
2022/02/14 11:15:49;;;;;;;4.10;1.73;;;;;;;;;;5087880;28;20448;-67
2022/02/14 11:18:18;;;;;;;4.73;1.97;;;;;;;;;;5087426;28;20971;-69
2022/02/14 11:20:47;;;;;;;4.60;1.80;;;;;;;;;;5083666;28;20539;-69
2022/02/14 11:23:15;;;;;;;3.27;1.93;;;;;;;;;;5084935;28;20460;-66
2022/02/14 11:25:45;;;;;;;4.40;1.80;;;;;;;;;;5087253;28;20526;-68
2022/02/14 11:28:18;;;;;;;3.13;1.80;;;;;;;;;;5084637;28;20776;-67
2022/02/14 11:30:48;;;;;;;4.30;1.60;;;;;;;;;;5086450;28;20448;-70
2022/02/14 11:33:20;;;;;;;5.60;1.70;;;;;;;;;;5084288;28;20952;-71
2022/02/14 11:35:58;;;;;;;3.73;1.57;;;;;;;;;;5089837;28;20464;-70
2022/02/14 11:38:40;;;;;;;6.20;1.83;;;;;;;;;;5089881;28;20440;-69
2022/02/14 11:41:22;;;;;;;2.80;1.50;;;;;;;;;;5090414;28;20444;-73
2022/02/14 11:43:50;;;;;;;4.50;2.27;;;;;;;;;;5090288;28;20448;-70
2022/02/14 11:46:19;;;;;;;4.23;2.50;;;;;;;;;;5088742;28;20535;-70
2022/02/14 11:48:51;;;;;;;11.17;1.70;;;;;;;;;;5082528;28;20524;-70
2022/02/14 11:51:23;;;;;;;3.83;1.50;;;;;;;;;;5083330;28;20451;-70
2022/02/14 11:53:52;;;;;;;2.70;1.60;;;;;;;;;;5089316;28;20452;-70
2022/02/14 11:56:26;;;;;;;4.33;1.83;;;;;;;;;;5079701;28;20936;-68
2022/02/14 11:59:02;;;;;;;4.27;1.70;;;;;;;;;;5087976;28;20455;-69
2022/02/14 12:01:30;;;;;;;3.70;2.20;;;;;;;;;;5084751;28;20440;-69
2022/02/14 12:04:12;;;;;;;3.47;1.63;;;;;;;;;;5085213;28;20477;-69
2022/02/14 12:07:11;;;;;;;2.07;1.30;;;;;;;;;;5083824;28;20444;-69
2022/02/14 12:09:53;;;;;;;2.53;1.63;;;;;;;;;;5085435;28;20536;-68
2022/02/14 12:12:43;;;;;;;3.00;1.40;;;;;;;;;;5081191;28;20531;-68
2022/02/14 12:20:54;;;;;;;5.73;2.00;;;;;;;;;;5034941;28;20931;-68
2022/02/14 12:23:28;;;;;;;3.90;1.57;;;;;;;;;;5084664;28;20490;-68
2022/02/14 12:25:55;;;;;;;2.87;1.40;;;;;;;;;;5084463;28;20920;-68
2022/02/14 12:28:23;;;;;;;4.00;1.70;;;;;;;;;;5083736;28;20437;-68
2022/02/14 12:30:50;;;;;;;3.53;1.10;;;;;;;;;;5086356;28;20467;-68
2022/02/14 12:33:19;;;;;;;1.40;1.20;;;;;;;;;;5084746;28;20451;-68
2022/02/14 12:35:47;;;;;;;3.00;1.47;;;;;;;;;;5086893;28;20452;-68
2022/02/14 12:38:14;;;;;;;1.83;1.20;;;;;;;;;;5085740;28;20534;-68
2022/02/14 12:40:45;;;;;;;6.03;1.40;;;;;;;;;;5086598;28;22062;-68
2022/02/14 12:43:13;;;;;;;3.03;1.70;;;;;;;;;;5084590;28;20459;-69
2022/02/14 12:45:40;;;;;;;2.60;1.40;;;;;;;;;;5084852;28;20952;-68
2022/02/14 12:48:07;;;;;;;2.50;1.40;;;;;;;;;;5087107;28;20455;-69
2022/02/14 12:50:38;;;;;;;1.33;1.17;;;;;;;;;;5085671;28;20441;-68
2022/02/14 12:53:10;;;;;;;2.40;1.30;;;;;;;;;;5088005;28;20480;-68
2022/02/14 12:55:38;;;;;;;2.80;1.10;;;;;;;;;;5088281;28;20548;-68
2022/02/14 12:58:05;;;;;;;1.20;1.10;;;;;;;;;;5089154;28;20488;-68
2022/02/14 13:00:34;;;;;;;2.03;1.13;;;;;;;;;;5087276;28;20448;-68
2022/02/14 13:03:02;;;;;;;1.63;1.10;;;;;;;;;;5090461;28;20476;-69
2022/02/14 13:05:31;;;;;;;2.40;1.53;;;;;;;;;;5087609;28;20518;-68
2022/02/14 13:08:01;;;;;;;2.90;1.70;;;;;;;;;;5087425;28;20449;-68
2022/02/14 13:10:29;;;;;;;4.33;1.53;;;;;;;;;;5090590;28;20444;-68
2022/02/14 13:13:00;;;;;;;1.93;1.33;;;;;;;;;;5087303;28;20459;-68
2022/02/14 13:15:27;;;;;;;1.53;1.13;;;;;;;;;;5086310;28;21046;-68
2022/02/14 13:17:54;;;;;;;3.07;1.60;;;;;;;;;;5087631;28;20572;-68
2022/02/14 13:20:22;;;;;;;1.30;0.93;;;;;;;;;;5089844;28;20455;-68
2022/02/14 13:22:49;;;;;;;2.07;1.30;;;;;;;;;;5087592;28;20465;-69
2022/02/14 13:25:24;;;;;;;1.53;1.30;;;;;;;;;;5089763;28;20448;-68
2022/02/14 13:27:52;;;;;;;2.47;1.40;;;;;;;;;;5087144;28;20443;-69
2022/02/14 13:30:20;;;;;;;1.17;1.07;;;;;;;;;;5089644;28;20779;-68
2022/02/14 13:32:47;;;;;;;3.07;1.27;;;;;;;;;;5089108;28;20518;-68
2022/02/14 13:35:16;;;;;;;2.33;1.00;;;;;;;;;;5090436;28;20466;-68
2022/02/14 13:37:43;;;;;;;2.10;1.37;;;;;;;;;;5091988;28;22104;-68
2022/02/14 13:40:23;;;;;;;3.83;1.30;;;;;;;;;;5091514;28;20468;-70
2022/02/14 13:42:50;;;;;;;3.30;1.30;;;;;;;;;;5088550;28;20479;-68
2022/02/14 13:45:19;;;;;;;2.73;1.20;;;;;;;;;;5091677;28;20448;-69
2022/02/14 13:47:46;;;;;;;2.90;1.10;;;;;;;;;;5090958;28;20456;-69
2022/02/14 13:50:27;;;;;;;1.83;1.50;;;;;;;;;;5088630;28;20445;-68
2022/02/14 13:52:54;;;;;;;1.47;1.03;;;;;;;;;;5091916;28;20483;-70
2022/02/14 13:55:26;;;;;;;2.00;1.43;;;;;;;;;;5092110;28;20536;-68
2022/02/14 13:57:54;;;;;;;3.33;1.50;;;;;;;;;;5092611;28;20478;-68
2022/02/14 14:00:35;;;;;;;2.30;1.53;;;;;;;;;;5086325;28;20527;-69
2022/02/14 14:03:02;;;;;;;2.67;1.60;;;;;;;;;;5089328;28;20444;-68
2022/02/14 14:05:36;;;;;;;2.43;1.70;;;;;;;;;;5088040;28;20527;-69
2022/02/14 14:08:03;;;;;;;4.90;1.37;;;;;;;;;;5088788;28;20440;-67
2022/02/14 14:10:42;;;;;;;2.57;1.70;;;;;;;;;;5088239;28;20441;-68
2022/02/14 14:13:10;;;;;;;3.17;1.30;;;;;;;;;;5084853;28;20794;-70
2022/02/14 14:15:37;;;;;;;1.83;1.40;;;;;;;;;;5088373;28;20451;-68
2022/02/14 14:18:05;;;;;;;1.40;1.10;;;;;;;;;;5089769;28;20883;-69
2022/02/14 14:20:32;;;;;;;4.03;1.40;;;;;;;;;;5088324;28;20449;-70
2022/02/14 14:22:59;;;;;;;4.53;1.17;;;;;;;;;;5086973;28;20456;-69
2022/02/14 14:25:28;;;;;;;3.57;1.07;;;;;;;;;;5084809;28;20472;-68
2022/02/14 14:27:57;;;;;;;2.60;1.37;;;;;;;;;;5088058;28;20457;-68
2022/02/14 14:30:25;;;;;;;3.67;1.67;;;;;;;;;;5084364;28;20445;-68
2022/02/14 14:32:54;;;;;;;2.43;1.20;;;;;;;;;;5087787;28;20449;-68
2022/02/14 14:35:22;;;;;;;2.70;1.50;;;;;;;;;;5087858;28;20445;-68
2022/02/14 14:37:51;;;;;;;2.17;1.53;;;;;;;;;;5091667;28;20824;-69
2022/02/14 14:40:18;;;;;;;3.23;1.70;;;;;;;;;;5088329;28;20510;-68
2022/02/14 14:42:48;;;;;;;2.30;1.27;;;;;;;;;;5091097;28;20448;-69
2022/02/14 14:45:19;;;;;;;1.93;1.27;;;;;;;;;;5089839;28;20437;-68
2022/02/14 14:47:46;;;;;;;2.10;1.60;;;;;;;;;;5085053;28;20776;-68
2022/02/14 14:50:14;;;;;;;3.73;1.80;;;;;;;;;;5091366;28;20539;-69
2022/02/14 14:52:41;;;;;;;1.53;1.17;;;;;;;;;;5090889;28;20574;-68
2022/02/14 14:55:08;;;;;;;4.07;1.70;;;;;;;;;;5091035;28;20526;-70
2022/02/14 14:57:35;;;;;;;2.27;1.20;;;;;;;;;;5090548;28;20481;-68